sensor_id;sensor_type;location;lat;lon;timestamp;temperature;humidity
6256;DHT22;3161;48.794;9.784;2023-07-29T00:02:00;17.80;99.90
6256;DHT22;3161;48.794;9.784;2023-07-29T00:04:27;17.80;99.90
6256;DHT22;3161;48.794;9.784;2023-07-29T00:06:55;17.80;99.90
6256;DHT22;3161;48.794;9.784;2023-07-29T00:09:22;17.80;99.90
6256;DHT22;3161;48.794;9.784;2023-07-29T00:11:50;17.80;99.90
6256;DHT22;3161;48.794;9.784;2023-07-29T00:14:17;17.80;99.90
6256;DHT22;3161;48.794;9.784;2023-07-29T00:16:45;17.80;99.90
6256;DHT22;3161;48.794;9.784;2023-07-29T00:19:12;17.80;99.90
6256;DHT22;3161;48.794;9.784;2023-07-29T00:21:40;17.80;99.90
6256;DHT22;3161;48.794;9.784;2023-07-29T00:24:07;17.80;99.90
6256;DHT22;3161;48.794;9.784;2023-07-29T00:26:35;17.80;99.90
6256;DHT22;3161;48.794;9.784;2023-07-29T00:29:02;17.80;99.90
6256;DHT22;3161;48.794;9.784;2023-07-29T00:31:30;17.70;99.90
6256;DHT22;3161;48.794;9.784;2023-07-29T00:33:57;17.70;99.90
6256;DHT22;3161;48.794;9.784;2023-07-29T00:36:25;17.70;99.90
6256;DHT22;3161;48.794;9.784;2023-07-29T00:38:53;17.70;99.90
6256;DHT22;3161;48.794;9.784;2023-07-29T00:41:23;17.70;99.90
6256;DHT22;3161;48.794;9.784;2023-07-29T00:43:51;17.70;99.90
6256;DHT22;3161;48.794;9.784;2023-07-29T00:46:19;17.60;99.90
6256;DHT22;3161;48.794;9.784;2023-07-29T00:48:47;17.60;99.90
6256;DHT22;3161;48.794;9.784;2023-07-29T00:51:15;17.60;99.90
6256;DHT22;3161;48.794;9.784;2023-07-29T00:53:42;17.60;99.90
6256;DHT22;3161;48.794;9.784;2023-07-29T00:56:11;17.60;99.90
6256;DHT22;3161;48.794;9.784;2023-07-29T00:58:39;17.60;99.90
6256;DHT22;3161;48.794;9.784;2023-07-29T01:01:07;17.60;99.90
6256;DHT22;3161;48.794;9.784;2023-07-29T01:03:35;17.60;99.90
6256;DHT22;3161;48.794;9.784;2023-07-29T01:06:17;17.60;99.90
6256;DHT22;3161;48.794;9.784;2023-07-29T01:09:01;17.60;99.90
6256;DHT22;3161;48.794;9.784;2023-07-29T01:11:38;17.60;99.90
6256;DHT22;3161;48.794;9.784;2023-07-29T01:14:05;17.60;99.90
6256;DHT22;3161;48.794;9.784;2023-07-29T01:16:39;17.60;99.90
6256;DHT22;3161;48.794;9.784;2023-07-29T01:19:05;17.60;99.90
6256;DHT22;3161;48.794;9.784;2023-07-29T01:21:37;17.60;99.90
6256;DHT22;3161;48.794;9.784;2023-07-29T01:24:05;17.60;99.90
6256;DHT22;3161;48.794;9.784;2023-07-29T01:26:33;17.60;99.90
6256;DHT22;3161;48.794;9.784;2023-07-29T01:29:00;17.60;99.90
6256;DHT22;3161;48.794;9.784;2023-07-29T01:31:37;17.60;99.90
6256;DHT22;3161;48.794;9.784;2023-07-29T01:35:07;17.70;99.90
6256;DHT22;3161;48.794;9.784;2023-07-29T01:36:45;17.70;99.90
6256;DHT22;3161;48.794;9.784;2023-07-29T01:39:15;17.70;99.90
6256;DHT22;3161;48.794;9.784;2023-07-29T01:41:44;17.70;99.90
6256;DHT22;3161;48.794;9.784;2023-07-29T01:44:13;17.70;99.90
6256;DHT22;3161;48.794;9.784;2023-07-29T01:46:40;17.70;99.90
6256;DHT22;3161;48.794;9.784;2023-07-29T01:49:08;17.60;99.90
6256;DHT22;3161;48.794;9.784;2023-07-29T01:51:35;17.60;99.90
6256;DHT22;3161;48.794;9.784;2023-07-29T01:54:03;17.60;99.90
6256;DHT22;3161;48.794;9.784;2023-07-29T01:56:31;17.60;99.90
6256;DHT22;3161;48.794;9.784;2023-07-29T01:58:58;17.60;99.90
6256;DHT22;3161;48.794;9.784;2023-07-29T02:01:26;17.60;99.90
6256;DHT22;3161;48.794;9.784;2023-07-29T02:03:53;17.60;99.90
6256;DHT22;3161;48.794;9.784;2023-07-29T02:06:22;17.60;99.90
6256;DHT22;3161;48.794;9.784;2023-07-29T02:08:51;17.60;99.90
6256;DHT22;3161;48.794;9.784;2023-07-29T02:11:19;17.60;99.90
6256;DHT22;3161;48.794;9.784;2023-07-29T02:13:48;17.60;99.90
6256;DHT22;3161;48.794;9.784;2023-07-29T02:16:15;17.60;99.90
6256;DHT22;3161;48.794;9.784;2023-07-29T02:18:43;17.60;99.90
6256;DHT22;3161;48.794;9.784;2023-07-29T02:21:10;17.60;99.90
6256;DHT22;3161;48.794;9.784;2023-07-29T02:23:38;17.60;99.90
6256;DHT22;3161;48.794;9.784;2023-07-29T02:26:06;17.60;99.90
6256;DHT22;3161;48.794;9.784;2023-07-29T02:28:33;17.60;99.90
6256;DHT22;3161;48.794;9.784;2023-07-29T02:31:15;17.60;99.90
6256;DHT22;3161;48.794;9.784;2023-07-29T02:33:44;17.60;99.90
6256;DHT22;3161;48.794;9.784;2023-07-29T02:36:12;17.60;99.90
6256;DHT22;3161;48.794;9.784;2023-07-29T02:38:41;17.60;99.90
6256;DHT22;3161;48.794;9.784;2023-07-29T02:41:09;17.60;99.90
6256;DHT22;3161;48.794;9.784;2023-07-29T02:43:38;17.60;99.90
6256;DHT22;3161;48.794;9.784;2023-07-29T02:46:07;17.60;99.90
6256;DHT22;3161;48.794;9.784;2023-07-29T02:48:35;17.50;99.90
6256;DHT22;3161;48.794;9.784;2023-07-29T02:51:02;17.50;99.90
6256;DHT22;3161;48.794;9.784;2023-07-29T02:53:30;17.50;99.90
6256;DHT22;3161;48.794;9.784;2023-07-29T02:55:57;17.50;99.90
6256;DHT22;3161;48.794;9.784;2023-07-29T02:58:25;17.50;99.90
6256;DHT22;3161;48.794;9.784;2023-07-29T03:00:52;17.50;99.90
6256;DHT22;3161;48.794;9.784;2023-07-29T03:03:20;17.50;99.90
6256;DHT22;3161;48.794;9.784;2023-07-29T03:05:48;17.50;99.90
6256;DHT22;3161;48.794;9.784;2023-07-29T03:08:15;17.50;99.90
6256;DHT22;3161;48.794;9.784;2023-07-29T03:10:43;17.40;99.90
6256;DHT22;3161;48.794;9.784;2023-07-29T03:13:10;17.40;99.90
6256;DHT22;3161;48.794;9.784;2023-07-29T03:15:38;17.40;99.90
6256;DHT22;3161;48.794;9.784;2023-07-29T03:18:05;17.40;99.90
6256;DHT22;3161;48.794;9.784;2023-07-29T03:20:33;17.40;99.90
6256;DHT22;3161;48.794;9.784;2023-07-29T03:23:00;17.40;99.90
6256;DHT22;3161;48.794;9.784;2023-07-29T03:25:29;17.40;99.90
6256;DHT22;3161;48.794;9.784;2023-07-29T03:27:56;17.30;99.90
6256;DHT22;3161;48.794;9.784;2023-07-29T03:30:24;17.30;99.90
6256;DHT22;3161;48.794;9.784;2023-07-29T03:32:52;17.30;99.90
6256;DHT22;3161;48.794;9.784;2023-07-29T03:35:19;17.30;99.90
6256;DHT22;3161;48.794;9.784;2023-07-29T03:37:47;17.30;99.90
6256;DHT22;3161;48.794;9.784;2023-07-29T03:40:14;17.30;99.90
6256;DHT22;3161;48.794;9.784;2023-07-29T03:42:42;17.30;99.90
6256;DHT22;3161;48.794;9.784;2023-07-29T03:45:10;17.30;99.90
6256;DHT22;3161;48.794;9.784;2023-07-29T03:47:38;17.30;99.90
6256;DHT22;3161;48.794;9.784;2023-07-29T03:50:06;17.30;99.90
6256;DHT22;3161;48.794;9.784;2023-07-29T03:52:33;17.30;99.90
6256;DHT22;3161;48.794;9.784;2023-07-29T03:55:01;17.30;99.90
6256;DHT22;3161;48.794;9.784;2023-07-29T03:57:28;17.30;99.90
6256;DHT22;3161;48.794;9.784;2023-07-29T03:59:56;17.30;99.90
6256;DHT22;3161;48.794;9.784;2023-07-29T04:02:24;17.30;99.90
6256;DHT22;3161;48.794;9.784;2023-07-29T04:04:51;17.20;99.90
6256;DHT22;3161;48.794;9.784;2023-07-29T04:07:19;17.30;99.90
6256;DHT22;3161;48.794;9.784;2023-07-29T04:09:46;17.30;99.90
6256;DHT22;3161;48.794;9.784;2023-07-29T04:12:14;17.30;99.90
6256;DHT22;3161;48.794;9.784;2023-07-29T04:14:42;17.30;99.90
6256;DHT22;3161;48.794;9.784;2023-07-29T04:17:09;17.30;99.90
6256;DHT22;3161;48.794;9.784;2023-07-29T04:19:37;17.30;99.90
6256;DHT22;3161;48.794;9.784;2023-07-29T04:22:04;17.30;99.90
6256;DHT22;3161;48.794;9.784;2023-07-29T04:24:32;17.30;99.90
6256;DHT22;3161;48.794;9.784;2023-07-29T04:27:00;17.40;99.90
6256;DHT22;3161;48.794;9.784;2023-07-29T04:29:27;17.40;99.90
6256;DHT22;3161;48.794;9.784;2023-07-29T04:31:55;17.40;99.90
6256;DHT22;3161;48.794;9.784;2023-07-29T04:34:22;17.40;99.90
6256;DHT22;3161;48.794;9.784;2023-07-29T04:36:50;17.40;99.90
6256;DHT22;3161;48.794;9.784;2023-07-29T04:39:17;17.40;99.90
6256;DHT22;3161;48.794;9.784;2023-07-29T04:41:45;17.40;99.90
6256;DHT22;3161;48.794;9.784;2023-07-29T04:44:13;17.50;99.90
6256;DHT22;3161;48.794;9.784;2023-07-29T04:46:40;17.50;99.90
6256;DHT22;3161;48.794;9.784;2023-07-29T04:49:08;17.50;99.90
6256;DHT22;3161;48.794;9.784;2023-07-29T04:51:35;17.50;99.90
6256;DHT22;3161;48.794;9.784;2023-07-29T04:54:03;17.50;99.90
6256;DHT22;3161;48.794;9.784;2023-07-29T04:56:31;17.50;99.90
6256;DHT22;3161;48.794;9.784;2023-07-29T04:58:58;17.60;99.90
6256;DHT22;3161;48.794;9.784;2023-07-29T05:01:26;17.60;99.90
6256;DHT22;3161;48.794;9.784;2023-07-29T05:03:53;17.60;99.90
6256;DHT22;3161;48.794;9.784;2023-07-29T05:06:21;17.60;99.90
6256;DHT22;3161;48.794;9.784;2023-07-29T05:08:49;17.60;99.90
6256;DHT22;3161;48.794;9.784;2023-07-29T05:11:16;17.60;99.90
6256;DHT22;3161;48.794;9.784;2023-07-29T05:13:44;17.70;99.90
6256;DHT22;3161;48.794;9.784;2023-07-29T05:16:11;17.70;99.90
6256;DHT22;3161;48.794;9.784;2023-07-29T05:18:38;17.70;99.90
6256;DHT22;3161;48.794;9.784;2023-07-29T05:21:06;17.70;99.90
6256;DHT22;3161;48.794;9.784;2023-07-29T05:23:35;17.80;99.90
6256;DHT22;3161;48.794;9.784;2023-07-29T05:26:02;17.70;99.90
6256;DHT22;3161;48.794;9.784;2023-07-29T05:28:30;17.80;99.90
6256;DHT22;3161;48.794;9.784;2023-07-29T05:31:00;17.70;99.90
6256;DHT22;3161;48.794;9.784;2023-07-29T05:33:26;17.70;99.90
6256;DHT22;3161;48.794;9.784;2023-07-29T05:35:54;17.60;99.90
6256;DHT22;3161;48.794;9.784;2023-07-29T05:38:22;17.60;99.90
6256;DHT22;3161;48.794;9.784;2023-07-29T05:40:49;17.50;99.90
6256;DHT22;3161;48.794;9.784;2023-07-29T05:43:17;17.50;99.90
6256;DHT22;3161;48.794;9.784;2023-07-29T05:45:44;17.40;99.90
6256;DHT22;3161;48.794;9.784;2023-07-29T05:50:54;17.40;99.90
6256;DHT22;3161;48.794;9.784;2023-07-29T05:53:22;17.40;99.90
6256;DHT22;3161;48.794;9.784;2023-07-29T05:55:50;17.50;99.90
6256;DHT22;3161;48.794;9.784;2023-07-29T05:58:17;17.50;99.90
6256;DHT22;3161;48.794;9.784;2023-07-29T06:00:45;17.50;99.90
6256;DHT22;3161;48.794;9.784;2023-07-29T06:03:12;17.60;99.90
6256;DHT22;3161;48.794;9.784;2023-07-29T06:05:40;17.60;99.90
6256;DHT22;3161;48.794;9.784;2023-07-29T06:08:07;17.70;99.90
6256;DHT22;3161;48.794;9.784;2023-07-29T06:10:35;17.70;99.90
6256;DHT22;3161;48.794;9.784;2023-07-29T06:13:02;17.70;99.90
6256;DHT22;3161;48.794;9.784;2023-07-29T06:15:30;17.80;99.90
6256;DHT22;3161;48.794;9.784;2023-07-29T06:17:57;17.80;99.90
6256;DHT22;3161;48.794;9.784;2023-07-29T06:20:25;17.90;99.90
6256;DHT22;3161;48.794;9.784;2023-07-29T06:22:53;17.90;99.90
6256;DHT22;3161;48.794;9.784;2023-07-29T06:25:20;17.90;99.90
6256;DHT22;3161;48.794;9.784;2023-07-29T06:27:49;18.00;99.90
6256;DHT22;3161;48.794;9.784;2023-07-29T06:30:16;18.00;99.90
6256;DHT22;3161;48.794;9.784;2023-07-29T06:32:44;18.10;99.90
6256;DHT22;3161;48.794;9.784;2023-07-29T06:35:11;18.20;99.90
6256;DHT22;3161;48.794;9.784;2023-07-29T06:37:39;18.20;99.90
6256;DHT22;3161;48.794;9.784;2023-07-29T06:40:07;18.40;99.90
6256;DHT22;3161;48.794;9.784;2023-07-29T06:42:35;18.50;99.90
6256;DHT22;3161;48.794;9.784;2023-07-29T06:45:04;18.50;99.90
6256;DHT22;3161;48.794;9.784;2023-07-29T06:47:33;18.60;99.90
6256;DHT22;3161;48.794;9.784;2023-07-29T06:50:00;18.70;99.90
6256;DHT22;3161;48.794;9.784;2023-07-29T06:52:28;18.80;99.90
6256;DHT22;3161;48.794;9.784;2023-07-29T06:54:56;18.90;99.90
6256;DHT22;3161;48.794;9.784;2023-07-29T06:57:23;19.00;99.90
6256;DHT22;3161;48.794;9.784;2023-07-29T06:59:51;19.10;99.90
6256;DHT22;3161;48.794;9.784;2023-07-29T07:02:18;19.30;99.90
6256;DHT22;3161;48.794;9.784;2023-07-29T07:04:46;19.20;99.90
6256;DHT22;3161;48.794;9.784;2023-07-29T07:07:14;19.30;99.90
6256;DHT22;3161;48.794;9.784;2023-07-29T07:09:43;19.40;99.90
6256;DHT22;3161;48.794;9.784;2023-07-29T07:12:10;19.40;99.90
6256;DHT22;3161;48.794;9.784;2023-07-29T07:14:38;19.50;99.90
6256;DHT22;3161;48.794;9.784;2023-07-29T07:17:05;19.60;99.90
6256;DHT22;3161;48.794;9.784;2023-07-29T07:19:33;19.60;99.90
6256;DHT22;3161;48.794;9.784;2023-07-29T07:22:00;19.60;99.90
6256;DHT22;3161;48.794;9.784;2023-07-29T07:24:28;19.60;99.90
6256;DHT22;3161;48.794;9.784;2023-07-29T07:26:55;19.60;99.90
6256;DHT22;3161;48.794;9.784;2023-07-29T07:29:23;19.60;99.90
6256;DHT22;3161;48.794;9.784;2023-07-29T07:31:52;19.70;99.90
6256;DHT22;3161;48.794;9.784;2023-07-29T07:34:20;19.70;99.90
6256;DHT22;3161;48.794;9.784;2023-07-29T07:36:48;19.60;99.90
6256;DHT22;3161;48.794;9.784;2023-07-29T07:39:16;19.60;99.90
6256;DHT22;3161;48.794;9.784;2023-07-29T07:41:43;19.50;99.90
6256;DHT22;3161;48.794;9.784;2023-07-29T07:44:11;19.40;99.90
6256;DHT22;3161;48.794;9.784;2023-07-29T07:46:41;19.40;99.90
6256;DHT22;3161;48.794;9.784;2023-07-29T07:49:08;19.30;99.90
6256;DHT22;3161;48.794;9.784;2023-07-29T07:51:36;19.30;99.90
6256;DHT22;3161;48.794;9.784;2023-07-29T07:54:03;19.30;99.90
6256;DHT22;3161;48.794;9.784;2023-07-29T07:56:31;19.20;99.90
6256;DHT22;3161;48.794;9.784;2023-07-29T07:58:58;19.20;99.90
6256;DHT22;3161;48.794;9.784;2023-07-29T08:01:26;19.20;99.90
6256;DHT22;3161;48.794;9.784;2023-07-29T08:03:54;19.10;99.90
6256;DHT22;3161;48.794;9.784;2023-07-29T08:06:21;19.70;99.90
6256;DHT22;3161;48.794;9.784;2023-07-29T08:08:48;19.00;99.90
6256;DHT22;3161;48.794;9.784;2023-07-29T08:11:16;19.00;99.90
6256;DHT22;3161;48.794;9.784;2023-07-29T08:13:43;19.00;99.90
6256;DHT22;3161;48.794;9.784;2023-07-29T08:16:11;19.00;99.90
6256;DHT22;3161;48.794;9.784;2023-07-29T08:18:39;19.00;99.90
6256;DHT22;3161;48.794;9.784;2023-07-29T08:21:07;19.10;99.90
6256;DHT22;3161;48.794;9.784;2023-07-29T08:23:35;19.20;99.90
6256;DHT22;3161;48.794;9.784;2023-07-29T08:26:04;19.30;99.90
6256;DHT22;3161;48.794;9.784;2023-07-29T08:28:35;19.40;99.90
6256;DHT22;3161;48.794;9.784;2023-07-29T08:31:03;19.50;99.90
6256;DHT22;3161;48.794;9.784;2023-07-29T08:33:32;19.60;99.90
6256;DHT22;3161;48.794;9.784;2023-07-29T08:36:00;19.70;99.90
6256;DHT22;3161;48.794;9.784;2023-07-29T08:38:28;19.80;99.90
6256;DHT22;3161;48.794;9.784;2023-07-29T08:44:12;19.90;99.90
6256;DHT22;3161;48.794;9.784;2023-07-29T08:46:50;19.90;99.90
6256;DHT22;3161;48.794;9.784;2023-07-29T08:49:19;19.90;99.90
6256;DHT22;3161;48.794;9.784;2023-07-29T08:51:49;19.90;99.90
6256;DHT22;3161;48.794;9.784;2023-07-29T08:54:17;20.00;99.90
6256;DHT22;3161;48.794;9.784;2023-07-29T08:56:45;20.00;99.90
6256;DHT22;3161;48.794;9.784;2023-07-29T08:59:14;20.00;99.90
6256;DHT22;3161;48.794;9.784;2023-07-29T09:01:43;20.10;99.90
6256;DHT22;3161;48.794;9.784;2023-07-29T09:04:11;20.20;99.90
6256;DHT22;3161;48.794;9.784;2023-07-29T09:06:39;20.20;99.90
6256;DHT22;3161;48.794;9.784;2023-07-29T09:09:08;20.30;99.90
6256;DHT22;3161;48.794;9.784;2023-07-29T09:11:36;20.50;99.90
6256;DHT22;3161;48.794;9.784;2023-07-29T09:14:04;20.50;99.90
6256;DHT22;3161;48.794;9.784;2023-07-29T09:16:32;20.60;99.90
6256;DHT22;3161;48.794;9.784;2023-07-29T09:19:02;20.80;99.90
6256;DHT22;3161;48.794;9.784;2023-07-29T09:21:31;20.90;99.90
6256;DHT22;3161;48.794;9.784;2023-07-29T09:24:03;20.90;99.90
6256;DHT22;3161;48.794;9.784;2023-07-29T09:26:34;21.10;99.90
6256;DHT22;3161;48.794;9.784;2023-07-29T09:29:02;21.20;99.90
6256;DHT22;3161;48.794;9.784;2023-07-29T09:31:30;21.40;99.90
6256;DHT22;3161;48.794;9.784;2023-07-29T09:34:00;21.60;99.90
6256;DHT22;3161;48.794;9.784;2023-07-29T09:36:30;21.90;99.90
6256;DHT22;3161;48.794;9.784;2023-07-29T09:38:57;22.10;99.90
6256;DHT22;3161;48.794;9.784;2023-07-29T09:41:29;22.30;99.90
6256;DHT22;3161;48.794;9.784;2023-07-29T09:43:59;22.50;99.90
6256;DHT22;3161;48.794;9.784;2023-07-29T09:46:33;22.70;99.90
6256;DHT22;3161;48.794;9.784;2023-07-29T09:48:58;22.90;99.90
6256;DHT22;3161;48.794;9.784;2023-07-29T09:51:25;23.20;99.90
6256;DHT22;3161;48.794;9.784;2023-07-29T09:53:53;23.40;99.90
6256;DHT22;3161;48.794;9.784;2023-07-29T09:56:26;23.60;99.90
6256;DHT22;3161;48.794;9.784;2023-07-29T09:58:55;23.80;99.90
6256;DHT22;3161;48.794;9.784;2023-07-29T10:01:24;24.00;99.90
6256;DHT22;3161;48.794;9.784;2023-07-29T10:03:52;24.20;99.90
6256;DHT22;3161;48.794;9.784;2023-07-29T10:06:20;24.30;99.90
6256;DHT22;3161;48.794;9.784;2023-07-29T10:08:48;24.40;99.90
6256;DHT22;3161;48.794;9.784;2023-07-29T10:11:16;24.40;99.90
6256;DHT22;3161;48.794;9.784;2023-07-29T10:13:46;24.60;99.90
6256;DHT22;3161;48.794;9.784;2023-07-29T10:16:15;24.60;99.90
6256;DHT22;3161;48.794;9.784;2023-07-29T10:18:43;24.60;99.90
6256;DHT22;3161;48.794;9.784;2023-07-29T10:21:12;24.70;99.90
6256;DHT22;3161;48.794;9.784;2023-07-29T10:23:43;24.70;99.90
6256;DHT22;3161;48.794;9.784;2023-07-29T10:26:11;24.60;99.90
6256;DHT22;3161;48.794;9.784;2023-07-29T10:28:46;24.70;99.90
6256;DHT22;3161;48.794;9.784;2023-07-29T10:31:15;24.80;99.90
6256;DHT22;3161;48.794;9.784;2023-07-29T10:33:44;24.80;99.90
6256;DHT22;3161;48.794;9.784;2023-07-29T10:36:12;25.00;99.90
6256;DHT22;3161;48.794;9.784;2023-07-29T10:38:41;25.10;99.90
6256;DHT22;3161;48.794;9.784;2023-07-29T10:41:09;25.20;99.90
6256;DHT22;3161;48.794;9.784;2023-07-29T10:43:37;25.30;99.90
6256;DHT22;3161;48.794;9.784;2023-07-29T10:46:16;25.40;99.90
6256;DHT22;3161;48.794;9.784;2023-07-29T10:48:56;25.40;99.90
6256;DHT22;3161;48.794;9.784;2023-07-29T10:54:10;25.60;99.90
6256;DHT22;3161;48.794;9.784;2023-07-29T10:56:49;25.80;99.90
6256;DHT22;3161;48.794;9.784;2023-07-29T11:02:00;25.60;99.90
6256;DHT22;3161;48.794;9.784;2023-07-29T11:04:31;25.50;99.90
6256;DHT22;3161;48.794;9.784;2023-07-29T11:15:14;24.60;99.90
6256;DHT22;3161;48.794;9.784;2023-07-29T11:17:44;24.30;99.90
6256;DHT22;3161;48.794;9.784;2023-07-29T11:20:13;24.10;99.90
6256;DHT22;3161;48.794;9.784;2023-07-29T11:22:41;23.80;99.90
6256;DHT22;3161;48.794;9.784;2023-07-29T11:25:11;23.60;99.90
6256;DHT22;3161;48.794;9.784;2023-07-29T11:27:39;23.50;99.90
6256;DHT22;3161;48.794;9.784;2023-07-29T11:30:09;23.40;99.90
6256;DHT22;3161;48.794;9.784;2023-07-29T11:32:38;23.30;99.90
6256;DHT22;3161;48.794;9.784;2023-07-29T11:35:13;23.20;99.90
6256;DHT22;3161;48.794;9.784;2023-07-29T11:37:47;23.30;99.90
6256;DHT22;3161;48.794;9.784;2023-07-29T11:40:14;23.50;99.90
6256;DHT22;3161;48.794;9.784;2023-07-29T11:42:42;23.60;99.90
6256;DHT22;3161;48.794;9.784;2023-07-29T11:45:10;23.90;99.90
6256;DHT22;3161;48.794;9.784;2023-07-29T11:47:37;24.00;99.90
6256;DHT22;3161;48.794;9.784;2023-07-29T11:50:11;24.20;99.90
6256;DHT22;3161;48.794;9.784;2023-07-29T11:52:37;24.30;99.90
6256;DHT22;3161;48.794;9.784;2023-07-29T11:55:05;24.40;99.90
6256;DHT22;3161;48.794;9.784;2023-07-29T11:57:38;24.50;99.90
6256;DHT22;3161;48.794;9.784;2023-07-29T12:00:07;24.50;99.90
6256;DHT22;3161;48.794;9.784;2023-07-29T12:02:38;24.50;99.90
6256;DHT22;3161;48.794;9.784;2023-07-29T12:05:06;24.60;99.90
6256;DHT22;3161;48.794;9.784;2023-07-29T12:07:34;24.70;99.90
6256;DHT22;3161;48.794;9.784;2023-07-29T12:10:03;24.80;99.90
6256;DHT22;3161;48.794;9.784;2023-07-29T12:12:31;24.80;99.90
6256;DHT22;3161;48.794;9.784;2023-07-29T12:14:58;24.80;99.90
6256;DHT22;3161;48.794;9.784;2023-07-29T12:17:27;24.90;99.90
6256;DHT22;3161;48.794;9.784;2023-07-29T12:19:55;25.10;99.90
6256;DHT22;3161;48.794;9.784;2023-07-29T12:22:24;25.20;99.90
6256;DHT22;3161;48.794;9.784;2023-07-29T12:24:52;25.20;99.90
6256;DHT22;3161;48.794;9.784;2023-07-29T12:27:21;25.40;99.90
6256;DHT22;3161;48.794;9.784;2023-07-29T12:29:52;25.50;99.90
6256;DHT22;3161;48.794;9.784;2023-07-29T12:32:20;25.60;99.90
6256;DHT22;3161;48.794;9.784;2023-07-29T12:34:49;25.60;99.90
6256;DHT22;3161;48.794;9.784;2023-07-29T12:37:17;25.70;99.90
6256;DHT22;3161;48.794;9.784;2023-07-29T12:39:44;25.80;99.90
6256;DHT22;3161;48.794;9.784;2023-07-29T12:42:12;25.90;99.90
6256;DHT22;3161;48.794;9.784;2023-07-29T12:44:39;26.10;99.90
6256;DHT22;3161;48.794;9.784;2023-07-29T12:47:07;26.50;99.90
6256;DHT22;3161;48.794;9.784;2023-07-29T12:49:35;26.80;99.90
6256;DHT22;3161;48.794;9.784;2023-07-29T12:52:03;27.20;99.90
6256;DHT22;3161;48.794;9.784;2023-07-29T12:54:31;27.70;99.90
6256;DHT22;3161;48.794;9.784;2023-07-29T12:56:58;28.10;99.90
6256;DHT22;3161;48.794;9.784;2023-07-29T12:59:26;28.40;99.90
6256;DHT22;3161;48.794;9.784;2023-07-29T13:01:53;28.30;99.90
6256;DHT22;3161;48.794;9.784;2023-07-29T13:04:21;28.30;99.90
6256;DHT22;3161;48.794;9.784;2023-07-29T13:06:48;28.30;99.90
6256;DHT22;3161;48.794;9.784;2023-07-29T13:09:16;28.20;99.90
6256;DHT22;3161;48.794;9.784;2023-07-29T13:11:44;28.00;99.90
6256;DHT22;3161;48.794;9.784;2023-07-29T13:14:11;27.90;99.90
6256;DHT22;3161;48.794;9.784;2023-07-29T13:16:39;28.10;99.90
6256;DHT22;3161;48.794;9.784;2023-07-29T13:19:06;28.30;99.90
6256;DHT22;3161;48.794;9.784;2023-07-29T13:21:34;28.40;99.90
6256;DHT22;3161;48.794;9.784;2023-07-29T13:24:01;28.50;99.90
6256;DHT22;3161;48.794;9.784;2023-07-29T13:26:29;28.60;99.90
6256;DHT22;3161;48.794;9.784;2023-07-29T13:28:56;28.50;99.90
6256;DHT22;3161;48.794;9.784;2023-07-29T13:31:24;28.50;99.90
6256;DHT22;3161;48.794;9.784;2023-07-29T13:33:51;28.50;99.90
6256;DHT22;3161;48.794;9.784;2023-07-29T13:36:19;28.50;99.90
6256;DHT22;3161;48.794;9.784;2023-07-29T13:38:46;28.40;99.90
6256;DHT22;3161;48.794;9.784;2023-07-29T13:41:14;28.30;99.90
6256;DHT22;3161;48.794;9.784;2023-07-29T13:43:41;28.40;99.90
6256;DHT22;3161;48.794;9.784;2023-07-29T13:46:09;28.50;99.90
6256;DHT22;3161;48.794;9.784;2023-07-29T13:48:36;28.70;99.90
6256;DHT22;3161;48.794;9.784;2023-07-29T13:51:04;29.00;99.90
6256;DHT22;3161;48.794;9.784;2023-07-29T13:53:31;29.20;99.90
6256;DHT22;3161;48.794;9.784;2023-07-29T13:55:59;29.30;99.90
6256;DHT22;3161;48.794;9.784;2023-07-29T13:58:26;29.30;99.90
6256;DHT22;3161;48.794;9.784;2023-07-29T14:00:54;29.10;99.90
6256;DHT22;3161;48.794;9.784;2023-07-29T14:03:21;29.00;99.90
6256;DHT22;3161;48.794;9.784;2023-07-29T14:05:49;28.80;99.90
6256;DHT22;3161;48.794;9.784;2023-07-29T14:08:16;28.60;99.90
6256;DHT22;3161;48.794;9.784;2023-07-29T14:10:44;28.60;99.90
6256;DHT22;3161;48.794;9.784;2023-07-29T14:13:11;28.50;99.90
6256;DHT22;3161;48.794;9.784;2023-07-29T14:15:39;28.30;99.90
6256;DHT22;3161;48.794;9.784;2023-07-29T14:18:07;28.10;99.90
6256;DHT22;3161;48.794;9.784;2023-07-29T14:20:34;27.90;99.90
6256;DHT22;3161;48.794;9.784;2023-07-29T14:23:02;27.70;99.90
6256;DHT22;3161;48.794;9.784;2023-07-29T14:25:29;27.50;99.90
6256;DHT22;3161;48.794;9.784;2023-07-29T14:27:57;27.50;99.90
6256;DHT22;3161;48.794;9.784;2023-07-29T14:30:24;27.50;99.90
6256;DHT22;3161;48.794;9.784;2023-07-29T14:32:52;27.60;99.90
6256;DHT22;3161;48.794;9.784;2023-07-29T14:35:20;27.70;99.90
6256;DHT22;3161;48.794;9.784;2023-07-29T14:37:47;27.80;99.90
6256;DHT22;3161;48.794;9.784;2023-07-29T14:40:15;27.80;99.90
6256;DHT22;3161;48.794;9.784;2023-07-29T14:42:42;27.80;99.90
6256;DHT22;3161;48.794;9.784;2023-07-29T14:45:10;27.60;99.90
6256;DHT22;3161;48.794;9.784;2023-07-29T14:47:38;27.50;99.90
6256;DHT22;3161;48.794;9.784;2023-07-29T14:50:06;27.50;99.90
6256;DHT22;3161;48.794;9.784;2023-07-29T14:52:34;27.40;99.90
6256;DHT22;3161;48.794;9.784;2023-07-29T14:55:01;27.40;99.90
6256;DHT22;3161;48.794;9.784;2023-07-29T14:57:29;27.40;99.90
6256;DHT22;3161;48.794;9.784;2023-07-29T14:59:57;27.40;99.90
6256;DHT22;3161;48.794;9.784;2023-07-29T15:02:24;27.40;99.90
6256;DHT22;3161;48.794;9.784;2023-07-29T15:04:52;27.30;99.90
6256;DHT22;3161;48.794;9.784;2023-07-29T15:07:19;27.30;99.90
6256;DHT22;3161;48.794;9.784;2023-07-29T15:09:47;27.30;99.90
6256;DHT22;3161;48.794;9.784;2023-07-29T15:12:14;27.40;99.90
6256;DHT22;3161;48.794;9.784;2023-07-29T15:14:42;27.30;99.90
6256;DHT22;3161;48.794;9.784;2023-07-29T15:17:10;27.30;99.90
6256;DHT22;3161;48.794;9.784;2023-07-29T15:19:37;27.30;99.90
6256;DHT22;3161;48.794;9.784;2023-07-29T15:22:05;27.20;99.90
6256;DHT22;3161;48.794;9.784;2023-07-29T15:24:33;27.10;99.60
6256;DHT22;3161;48.794;9.784;2023-07-29T15:27:00;27.00;98.90
6256;DHT22;3161;48.794;9.784;2023-07-29T15:29:28;26.80;99.50
6256;DHT22;3161;48.794;9.784;2023-07-29T15:31:56;26.80;99.90
6256;DHT22;3161;48.794;9.784;2023-07-29T15:34:23;26.60;99.90
6256;DHT22;3161;48.794;9.784;2023-07-29T15:36:52;26.50;99.90
6256;DHT22;3161;48.794;9.784;2023-07-29T15:39:19;26.40;99.90
6256;DHT22;3161;48.794;9.784;2023-07-29T15:41:47;26.50;99.90
6256;DHT22;3161;48.794;9.784;2023-07-29T15:44:14;26.50;99.90
6256;DHT22;3161;48.794;9.784;2023-07-29T15:46:43;26.60;99.90
6256;DHT22;3161;48.794;9.784;2023-07-29T15:49:11;26.60;99.90
6256;DHT22;3161;48.794;9.784;2023-07-29T15:51:39;26.60;99.90
6256;DHT22;3161;48.794;9.784;2023-07-29T15:56:54;26.70;99.90
6256;DHT22;3161;48.794;9.784;2023-07-29T15:59:22;26.70;99.90
6256;DHT22;3161;48.794;9.784;2023-07-29T16:01:51;26.60;99.90
6256;DHT22;3161;48.794;9.784;2023-07-29T16:04:19;26.60;99.50
6256;DHT22;3161;48.794;9.784;2023-07-29T16:06:46;26.60;99.70
6256;DHT22;3161;48.794;9.784;2023-07-29T16:09:14;26.60;99.90
6256;DHT22;3161;48.794;9.784;2023-07-29T16:11:41;26.60;98.80
6256;DHT22;3161;48.794;9.784;2023-07-29T16:14:09;26.60;99.30
6256;DHT22;3161;48.794;9.784;2023-07-29T16:19:29;26.60;99.90
6256;DHT22;3161;48.794;9.784;2023-07-29T16:21:57;26.60;98.90
6256;DHT22;3161;48.794;9.784;2023-07-29T16:24:24;26.60;98.40
6256;DHT22;3161;48.794;9.784;2023-07-29T16:26:52;26.50;99.10
6256;DHT22;3161;48.794;9.784;2023-07-29T16:29:19;26.40;99.50
6256;DHT22;3161;48.794;9.784;2023-07-29T16:31:47;26.40;98.40
6256;DHT22;3161;48.794;9.784;2023-07-29T16:34:15;26.40;99.30